Time;durP1;ratioP1;P1;durP2;ratioP2;P2;SDS_P1;SDS_P2;PMS_P1;PMS_P2;Temp;Humidity;BMP_temperature;BMP_pressure;BME280_temperature;BME280_humidity;BME280_pressure;Samples;Min_cycle;Max_cycle;Signal;HPM_P1;HPM_P2
2023/06/26 00:02:18;;;;;;;7.45;6.70;;;24.40;99.90;;;;;;5058283;28;20082;-69
2023/06/26 00:04:44;;;;;;;8.32;7.20;;;24.20;99.90;;;;;;5074679;28;20600;-69
2023/06/26 00:07:10;;;;;;;8.63;7.20;;;24.30;99.90;;;;;;5058082;28;20032;-69
2023/06/26 00:09:36;;;;;;;10.20;7.15;;;24.30;99.90;;;;;;5078926;28;20047;-69
2023/06/26 00:12:02;;;;;;;10.93;7.60;;;24.10;99.90;;;;;;5097924;28;20040;-69
2023/06/26 00:14:28;;;;;;;9.40;7.85;;;24.20;99.90;;;;;;5080116;28;20040;-69
2023/06/26 00:16:53;;;;;;;9.02;7.25;;;24.20;99.90;;;;;;5076564;28;20079;-69
2023/06/26 00:19:19;;;;;;;8.40;7.60;;;24.00;99.90;;;;;;5073773;28;20065;-69
2023/06/26 00:21:47;;;;;;;8.32;6.93;;;24.20;99.90;;;;;;5058075;28;20051;-69
2023/06/26 00:24:17;;;;;;;9.35;7.38;;;24.90;99.90;;;;;;5074233;28;20075;-70
2023/06/26 00:26:45;;;;;;;8.55;7.13;;;24.00;99.90;;;;;;5074547;28;20062;-70
2023/06/26 00:29:11;;;;;;;7.90;7.10;;;24.10;99.90;;;;;;5073806;28;20039;-69
2023/06/26 00:31:37;;;;;;;8.10;7.22;;;24.40;99.90;;;;;;5074083;28;20043;-70
2023/06/26 00:34:03;;;;;;;8.73;7.32;;;24.10;99.90;;;;;;5073981;28;20083;-70
2023/06/26 00:36:29;;;;;;;9.45;7.22;;;24.00;99.90;;;;;;5057548;28;20071;-70
2023/06/26 00:38:54;;;;;;;9.95;8.32;;;23.90;99.90;;;;;;5073596;28;20078;-68
2023/06/26 00:41:20;;;;;;;8.30;6.40;;;23.70;99.90;;;;;;5091788;28;20036;-70
2023/06/26 00:43:46;;;;;;;8.95;7.32;;;23.70;99.90;;;;;;5074252;28;20570;-70
2023/06/26 00:46:14;;;;;;;7.78;6.50;;;23.90;99.90;;;;;;5073474;28;20074;-70
2023/06/26 00:48:42;;;;;;;7.60;6.88;;;23.70;99.90;;;;;;5073118;28;20032;-69
2023/06/26 00:51:08;;;;;;;8.70;7.20;;;24.60;99.90;;;;;;5073380;28;20046;-69
2023/06/26 00:53:34;;;;;;;10.05;7.63;;;23.80;99.90;;;;;;5073769;28;20043;-69
2023/06/26 00:56:04;;;;;;;11.52;7.53;;;23.60;99.90;;;;;;5091968;28;20115;-70
2023/06/26 00:58:29;;;;;;;8.38;7.22;;;23.70;99.90;;;;;;5091279;28;20075;-69
2023/06/26 01:00:56;;;;;;;9.23;6.82;;;23.90;99.90;;;;;;5073806;28;20109;-69
2023/06/26 01:03:25;;;;;;;8.75;7.40;;;23.70;99.90;;;;;;5073269;28;20032;-69
2023/06/26 01:05:56;;;;;;;9.73;7.85;;;23.70;99.90;;;;;;5073741;28;20036;-69
2023/06/26 01:08:22;;;;;;;7.80;7.00;;;23.80;99.90;;;;;;5073531;28;20051;-69
2023/06/26 01:10:48;;;;;;;7.65;6.85;;;23.90;99.90;;;;;;5073709;28;20036;-70
2023/06/26 01:13:15;;;;;;;8.23;7.22;;;23.80;99.90;;;;;;5073833;28;20040;-70
2023/06/26 01:15:41;;;;;;;8.20;7.20;;;23.80;99.90;;;;;;5073025;28;20076;-69
2023/06/26 01:18:07;;;;;;;7.93;7.20;;;23.70;99.90;;;;;;5073227;28;20090;-70
2023/06/26 01:20:36;;;;;;;7.88;6.63;;;23.60;99.90;;;;;;5073702;28;20082;-70
2023/06/26 01:23:10;;;;;;;8.02;6.85;;;23.60;99.90;;;;;;5073419;28;20036;-70
2023/06/26 01:26:07;;;;;;;8.70;7.82;;;23.60;99.90;;;;;;5073585;28;20044;-70
2023/06/26 01:28:35;;;;;;;9.00;7.40;;;23.80;99.90;;;;;;5073214;28;20510;-69
2023/06/26 01:31:02;;;;;;;9.50;7.93;;;23.70;99.90;;;;;;5073236;28;20027;-69
2023/06/26 01:33:28;;;;;;;7.40;6.60;;;23.70;99.90;;;;;;5073487;28;20078;-70
2023/06/26 01:35:54;;;;;;;8.32;6.95;;;23.20;99.90;;;;;;5073768;28;20048;-70
2023/06/26 01:38:23;;;;;;;9.35;8.35;;;22.70;99.90;;;;;;5056155;28;20105;-70
2023/06/26 01:40:50;;;;;;;7.43;6.72;;;23.50;99.90;;;;;;5073530;28;20561;-69
2023/06/26 01:43:23;;;;;;;11.20;7.20;;;23.50;99.90;;;;;;5073454;28;20039;-70
2023/06/26 01:45:51;;;;;;;10.00;8.00;;;23.50;99.90;;;;;;5073534;28;20051;-69
2023/06/26 01:48:22;;;;;;;8.65;7.40;;;23.50;99.90;;;;;;5073075;28;20381;-69
2023/06/26 01:50:50;;;;;;;10.80;8.27;;;23.50;99.90;;;;;;5056497;28;20097;-70
2023/06/26 01:53:19;;;;;;;13.05;8.68;;;23.60;99.90;;;;;;5073537;28;20083;-69
2023/06/26 01:55:50;;;;;;;8.15;7.35;;;23.70;99.90;;;;;;5072701;28;20051;-69
2023/06/26 01:58:20;;;;;;;8.70;7.75;;;23.50;99.90;;;;;;5072546;28;20158;-69
2023/06/26 02:00:46;;;;;;;10.32;7.78;;;23.50;99.90;;;;;;5056290;28;20028;-69
2023/06/26 02:03:12;;;;;;;8.23;7.38;;;23.60;99.90;;;;;;5073291;28;20560;-69
2023/06/26 02:05:37;;;;;;;9.75;8.57;;;23.40;99.90;;;;;;5091446;28;20036;-69
2023/06/26 02:08:03;;;;;;;8.98;7.55;;;23.40;99.90;;;;;;5090993;28;20169;-70
2023/06/26 02:10:29;;;;;;;9.75;7.28;;;23.50;99.90;;;;;;5073017;28;20051;-70
2023/06/26 02:12:55;;;;;;;10.90;9.15;;;23.30;99.90;;;;;;5056463;28;20491;-69
2023/06/26 02:15:21;;;;;;;9.55;8.57;;;23.50;99.90;;;;;;5073659;28;20039;-70
2023/06/26 02:17:48;;;;;;;10.25;8.35;;;23.30;99.90;;;;;;5075935;28;20036;-69
2023/06/26 02:20:15;;;;;;;9.23;7.63;;;23.40;99.90;;;;;;5076242;28;20075;-70
2023/06/26 02:22:41;;;;;;;9.73;8.73;;;23.30;99.90;;;;;;5059940;28;20036;-70
2023/06/26 02:25:07;;;;;;;11.38;8.65;;;23.30;99.90;;;;;;5076670;28;20038;-70
2023/06/26 02:27:32;;;;;;;8.00;7.20;;;23.30;99.90;;;;;;5094267;28;20035;-70
2023/06/26 02:29:58;;;;;;;12.85;9.02;;;23.00;99.90;;;;;;5094384;28;20036;-69
2023/06/26 02:32:23;;;;;;;11.35;8.90;;;23.50;99.90;;;;;;5076866;28;20039;-69
2023/06/26 02:34:51;;;;;;;9.68;8.48;;;23.00;99.90;;;;;;5083031;28;20096;-70
2023/06/26 02:37:17;;;;;;;9.38;7.85;;;23.20;99.90;;;;;;5081759;28;20168;-69
2023/06/26 02:39:43;;;;;;;8.93;7.82;;;23.20;99.90;;;;;;5081358;28;20044;-69
2023/06/26 02:42:08;;;;;;;10.98;8.35;;;23.40;99.90;;;;;;5076383;28;20040;-69
2023/06/26 02:44:34;;;;;;;11.32;8.82;;;23.30;99.90;;;;;;5062071;28;20028;-70
2023/06/26 02:46:59;;;;;;;10.45;9.07;;;23.20;99.90;;;;;;5079516;28;20530;-69
2023/06/26 02:49:25;;;;;;;12.55;10.57;;;23.20;99.90;;;;;;5080165;28;20046;-69
2023/06/26 02:51:51;;;;;;;11.48;9.68;;;23.20;99.90;;;;;;5077528;28;20407;-70
2023/06/26 02:54:16;;;;;;;11.43;9.18;;;23.20;99.90;;;;;;5076384;28;20039;-69
2023/06/26 02:56:42;;;;;;;11.57;9.80;;;23.00;99.90;;;;;;5076243;28;20040;-70
2023/06/26 02:59:08;;;;;;;10.30;9.27;;;23.10;99.90;;;;;;5075173;28;20032;-68
2023/06/26 03:01:34;;;;;;;11.43;8.93;;;23.00;99.90;;;;;;5075821;28;20580;-70
2023/06/26 03:04:00;;;;;;;11.85;9.43;;;23.10;99.90;;;;;;5075748;28;20055;-70
2023/06/26 03:06:27;;;;;;;10.48;8.55;;;23.00;99.90;;;;;;5075798;28;20039;-69
2023/06/26 03:08:53;;;;;;;9.73;8.57;;;23.20;99.90;;;;;;5058803;28;20474;-70
2023/06/26 03:11:19;;;;;;;13.77;8.52;;;23.00;99.90;;;;;;5074927;28;20420;-69
2023/06/26 03:13:45;;;;;;;11.68;8.35;;;22.90;99.90;;;;;;5075741;28;20047;-69
2023/06/26 03:16:11;;;;;;;10.43;8.10;;;23.00;99.90;;;;;;5058670;28;20032;-70
2023/06/26 03:18:36;;;;;;;9.40;8.15;;;22.90;99.90;;;;;;5074966;28;20028;-68
2023/06/26 03:21:02;;;;;;;11.15;8.05;;;23.10;99.90;;;;;;5059113;28;20445;-70
2023/06/26 03:23:28;;;;;;;11.23;7.50;;;23.10;99.90;;;;;;5058872;28;20044;-70
2023/06/26 03:25:54;;;;;;;11.52;8.60;;;23.00;99.90;;;;;;5092993;28;20542;-70
2023/06/26 03:28:19;;;;;;;11.77;8.07;;;23.10;99.90;;;;;;5074608;28;20035;-69
2023/06/26 03:30:45;;;;;;;9.57;7.38;;;22.90;99.90;;;;;;5074970;28;20450;-69
2023/06/26 03:33:11;;;;;;;10.50;7.28;;;22.80;99.90;;;;;;5093585;28;20057;-70
2023/06/26 03:35:36;;;;;;;11.05;7.60;;;22.90;99.90;;;;;;5075079;28;20085;-68
2023/06/26 03:38:04;;;;;;;8.98;6.03;;;22.90;99.90;;;;;;5092708;28;20050;-69
2023/06/26 03:40:29;;;;;;;10.63;7.15;;;22.90;99.90;;;;;;5074723;28;20046;-70
2023/06/26 03:42:55;;;;;;;10.82;8.00;;;22.80;99.90;;;;;;5075189;28;20040;-70
2023/06/26 03:45:20;;;;;;;11.82;7.50;;;22.60;99.90;;;;;;5093092;28;20032;-69
2023/06/26 03:47:49;;;;;;;16.60;8.30;;;22.80;99.90;;;;;;5074537;28;20070;-70
2023/06/26 03:50:18;;;;;;;12.13;6.82;;;22.70;99.90;;;;;;5074611;28;20090;-69
2023/06/26 03:52:44;;;;;;;11.88;7.93;;;22.70;99.90;;;;;;5074860;28;20126;-69
2023/06/26 03:55:10;;;;;;;12.95;8.10;;;22.50;99.90;;;;;;5074988;28;20118;-70
2023/06/26 03:57:36;;;;;;;14.85;8.23;;;22.40;99.90;;;;;;5074826;28;20039;-69
2023/06/26 04:00:05;;;;;;;11.20;7.82;;;23.10;99.90;;;;;;5074208;28;20059;-70
2023/06/26 04:02:31;;;;;;;14.02;8.15;;;22.10;99.90;;;;;;5074839;28;20036;-70
2023/06/26 04:04:56;;;;;;;12.25;8.50;;;23.40;99.90;;;;;;5074723;28;20412;-70
2023/06/26 04:07:22;;;;;;;14.27;8.63;;;23.00;99.90;;;;;;5074083;28;20048;-69
2023/06/26 04:09:48;;;;;;;11.68;7.53;;;22.00;99.90;;;;;;5074440;28;20474;-70
2023/06/26 04:12:14;;;;;;;15.82;8.35;;;22.10;99.90;;;;;;5074363;28;20055;-70
2023/06/26 04:14:39;;;;;;;14.70;8.07;;;22.20;99.90;;;;;;5074706;28;20044;-70
2023/06/26 04:17:05;;;;;;;17.33;9.23;;;22.00;99.90;;;;;;5073974;28;20490;-69
2023/06/26 04:19:30;;;;;;;18.75;8.60;;;22.00;99.90;;;;;;5073878;28;20028;-70
2023/06/26 04:21:56;;;;;;;15.27;8.15;;;22.10;99.90;;;;;;5057714;28;20047;-70
2023/06/26 04:24:22;;;;;;;20.45;9.73;;;22.00;99.90;;;;;;5074200;28;20102;-69
2023/06/26 04:26:48;;;;;;;17.42;8.60;;;22.20;99.90;;;;;;5057483;28;20048;-68
2023/06/26 04:29:13;;;;;;;20.98;10.10;;;22.00;99.90;;;;;;5073807;28;20043;-70
2023/06/26 04:31:39;;;;;;;14.15;9.82;;;21.90;99.90;;;;;;5091025;28;20036;-69
2023/06/26 04:34:05;;;;;;;16.48;9.82;;;21.80;99.90;;;;;;5073735;28;20047;-69
2023/06/26 04:36:33;;;;;;;18.05;9.95;;;21.80;99.90;;;;;;5092267;28;20039;-69
2023/06/26 04:38:59;;;;;;;22.00;10.45;;;21.90;99.90;;;;;;5089410;28;20040;-70
2023/06/26 04:41:25;;;;;;;15.82;9.93;;;21.60;99.90;;;;;;5091074;28;20039;-70
2023/06/26 04:43:50;;;;;;;17.42;9.75;;;21.80;99.90;;;;;;5090791;28;20047;-69
2023/06/26 04:46:16;;;;;;;21.85;10.73;;;21.60;99.90;;;;;;5073971;28;20032;-70
2023/06/26 04:48:44;;;;;;;17.25;9.32;;;21.70;99.90;;;;;;5090179;28;20403;-70
2023/06/26 04:51:10;;;;;;;19.75;9.32;;;21.60;99.90;;;;;;5073671;28;20043;-70
2023/06/26 04:53:36;;;;;;;17.95;8.43;;;21.50;99.90;;;;;;5073796;28;20032;-69
2023/06/26 04:56:01;;;;;;;16.75;7.85;;;21.40;99.90;;;;;;5091007;28;20040;-70
2023/06/26 04:58:27;;;;;;;11.55;7.03;;;21.10;99.90;;;;;;5091930;28;20040;-69
2023/06/26 05:00:53;;;;;;;13.43;6.68;;;22.30;99.90;;;;;;5076476;28;20558;-69
2023/06/26 05:03:18;;;;;;;18.27;7.10;;;21.10;99.90;;;;;;5076119;28;20407;-69
2023/06/26 05:05:45;;;;;;;16.35;6.60;;;21.10;99.90;;;;;;5092230;28;20089;-69
2023/06/26 05:08:22;;;;;;;19.10;6.55;;;21.00;99.90;;;;;;5073315;28;20040;-69
2023/06/26 05:10:49;;;;;;;16.13;6.70;;;20.80;99.90;;;;;;5090117;28;20036;-69
2023/06/26 05:13:17;;;;;;;16.42;5.63;;;20.80;99.90;;;;;;5090565;28;20047;-70
2023/06/26 05:15:43;;;;;;;19.45;7.05;;;20.90;99.90;;;;;;5090397;28;20043;-69
2023/06/26 05:18:09;;;;;;;20.35;5.38;;;21.10;99.90;;;;;;5089835;28;20442;-69
2023/06/26 05:20:36;;;;;;;14.32;5.80;;;20.60;99.90;;;;;;5090173;28;20039;-70
2023/06/26 05:23:05;;;;;;;18.10;5.55;;;20.70;99.90;;;;;;5090280;28;20464;-69
2023/06/26 05:25:32;;;;;;;17.27;6.22;;;20.70;99.90;;;;;;5090123;28;20040;-69
2023/06/26 05:27:58;;;;;;;17.52;5.20;;;20.60;99.90;;;;;;5090146;28;20040;-70
2023/06/26 05:30:25;;;;;;;13.23;5.05;;;20.60;99.90;;;;;;5090236;28;20110;-69
2023/06/26 05:32:52;;;;;;;16.92;5.25;;;20.50;99.90;;;;;;5090395;28;20044;-69
2023/06/26 05:35:21;;;;;;;17.70;5.20;;;20.60;99.90;;;;;;5090173;28;20040;-69
2023/06/26 05:37:50;;;;;;;11.75;4.53;;;20.70;99.90;;;;;;5090922;28;20089;-69
2023/06/26 05:40:16;;;;;;;11.20;4.97;;;20.40;99.90;;;;;;5090065;28;20495;-69
2023/06/26 05:42:42;;;;;;;14.57;5.22;;;20.80;99.90;;;;;;5090464;28;20036;-69
2023/06/26 05:45:08;;;;;;;21.45;5.20;;;20.60;99.90;;;;;;5090035;28;20036;-70
2023/06/26 05:47:34;;;;;;;14.85;4.65;;;20.70;99.90;;;;;;5090052;28;20068;-69
2023/06/26 05:50:00;;;;;;;14.52;5.35;;;21.40;99.90;;;;;;5092285;28;20656;-69
2023/06/26 05:52:26;;;;;;;13.57;4.30;;;21.00;99.90;;;;;;5094903;28;20040;-69
2023/06/26 05:54:52;;;;;;;14.40;4.80;;;20.90;99.90;;;;;;5096701;28;20086;-69
2023/06/26 05:57:18;;;;;;;19.38;3.65;;;21.00;99.90;;;;;;5084510;28;20046;-69
2023/06/26 05:59:46;;;;;;;17.67;4.80;;;22.40;99.90;;;;;;5060747;28;20530;-69
2023/06/26 06:02:12;;;;;;;10.48;3.75;;;21.10;99.90;;;;;;5076283;28;20043;-70
2023/06/26 06:04:38;;;;;;;14.35;4.20;;;21.00;99.90;;;;;;5076473;28;20032;-70
2023/06/26 06:07:04;;;;;;;19.45;4.10;;;21.10;99.90;;;;;;5075653;28;20123;-69
2023/06/26 06:09:30;;;;;;;15.05;3.88;;;21.00;99.90;;;;;;5075829;28;20044;-69
2023/06/26 06:11:55;;;;;;;13.07;4.00;;;21.00;99.90;;;;;;5076230;28;20039;-69
2023/06/26 06:14:21;;;;;;;13.73;3.90;;;21.30;99.90;;;;;;5076248;28;20128;-70
2023/06/26 06:16:46;;;;;;;11.15;3.58;;;21.40;99.90;;;;;;5076079;28;20036;-70
2023/06/26 06:19:13;;;;;;;15.27;3.35;;;21.30;99.90;;;;;;5074858;28;20093;-70
2023/06/26 06:21:39;;;;;;;12.55;2.95;;;21.40;99.90;;;;;;5076599;28;20415;-69
2023/06/26 06:24:06;;;;;;;12.35;3.08;;;21.60;99.90;;;;;;5080789;28;20044;-69
2023/06/26 06:26:32;;;;;;;10.05;3.28;;;21.70;99.90;;;;;;5058742;28;20039;-70
2023/06/26 06:28:58;;;;;;;12.60;3.20;;;21.60;99.90;;;;;;5073780;28;20071;-70
2023/06/26 06:31:24;;;;;;;10.85;3.00;;;21.90;99.90;;;;;;5074671;28;20075;-69
2023/06/26 06:33:52;;;;;;;7.03;2.40;;;22.20;99.90;;;;;;5075832;28;20043;-70
2023/06/26 06:36:18;;;;;;;10.23;2.53;;;22.00;99.90;;;;;;5093628;28;20080;-70
2023/06/26 06:38:44;;;;;;;15.63;3.33;;;22.00;99.90;;;;;;5073932;28;20086;-69
2023/06/26 06:41:10;;;;;;;9.07;3.55;;;22.40;99.90;;;;;;5095389;28;20503;-71
2023/06/26 06:43:36;;;;;;;11.07;2.65;;;22.20;99.90;;;;;;5074080;28;20431;-70
2023/06/26 06:46:02;;;;;;;9.05;2.63;;;22.20;99.90;;;;;;5093514;28;20084;-70
2023/06/26 06:48:28;;;;;;;9.10;2.97;;;22.00;99.90;;;;;;5057861;28;20453;-70
2023/06/26 06:50:53;;;;;;;5.53;2.20;;;21.70;99.90;;;;;;5072364;28;20040;-68
2023/06/26 06:53:22;;;;;;;11.15;3.53;;;22.10;99.90;;;;;;5068130;28;20040;-69
2023/06/26 06:55:48;;;;;;;8.68;2.42;;;22.10;99.90;;;;;;5083377;28;20060;-70
2023/06/26 06:58:16;;;;;;;10.80;3.20;;;21.90;99.90;;;;;;5074983;28;20036;-69
2023/06/26 07:00:42;;;;;;;7.80;2.50;;;21.90;99.90;;;;;;5071709;28;20044;-70
2023/06/26 07:03:08;;;;;;;9.25;2.50;;;22.20;99.90;;;;;;5059967;28;20035;-69
2023/06/26 07:05:33;;;;;;;10.15;2.78;;;22.20;99.90;;;;;;5098990;28;20036;-69
2023/06/26 07:07:59;;;;;;;8.40;2.45;;;22.00;99.90;;;;;;5073329;28;20104;-69
2023/06/26 07:10:25;;;;;;;5.30;2.05;;;22.40;99.90;;;;;;5050716;28;20033;-68
2023/06/26 07:12:51;;;;;;;5.72;1.95;;;22.30;99.90;;;;;;5069604;28;20047;-69
2023/06/26 07:15:17;;;;;;;7.43;3.03;;;22.30;99.90;;;;;;5070736;28;20063;-69
2023/06/26 07:17:42;;;;;;;7.70;1.90;;;23.10;99.90;;;;;;5046226;28;20040;-69
2023/06/26 07:20:09;;;;;;;7.53;1.95;;;22.20;99.90;;;;;;5067527;28;20760;-69
2023/06/26 07:22:36;;;;;;;4.18;2.00;;;22.40;99.90;;;;;;5072114;28;20051;-67
2023/06/26 07:25:03;;;;;;;6.55;1.90;;;22.30;99.90;;;;;;5066249;28;20503;-70
2023/06/26 07:27:29;;;;;;;5.38;1.88;;;22.60;99.90;;;;;;5045325;28;20474;-68
2023/06/26 07:29:55;;;;;;;4.75;2.03;;;22.30;99.90;;;;;;5070159;28;20082;-70
2023/06/26 07:32:20;;;;;;;6.78;1.85;;;22.20;99.90;;;;;;5053358;28;20040;-69
2023/06/26 07:34:46;;;;;;;6.15;1.92;;;22.30;99.90;;;;;;5073759;28;20044;-69
2023/06/26 07:37:12;;;;;;;10.82;2.47;;;22.50;99.90;;;;;;5069208;28;20028;-69
2023/06/26 07:39:37;;;;;;;3.72;1.80;;;22.10;99.90;;;;;;5070651;28;20040;-69
2023/06/26 07:42:03;;;;;;;4.03;1.90;;;22.00;99.90;;;;;;5070649;28;20051;-70
2023/06/26 07:44:29;;;;;;;12.75;2.92;;;22.10;99.90;;;;;;5068480;28;20028;-69
2023/06/26 07:46:54;;;;;;;6.53;2.03;;;22.00;99.90;;;;;;5074611;28;20068;-70
2023/06/26 07:49:20;;;;;;;6.20;1.60;;;22.30;99.90;;;;;;5056030;28;20044;-70
2023/06/26 07:51:45;;;;;;;7.43;2.13;;;22.30;99.90;;;;;;5069420;28;20549;-70
2023/06/26 07:54:11;;;;;;;6.32;2.10;;;22.50;99.90;;;;;;5064434;28;20032;-69
2023/06/26 07:56:59;;;;;;;8.30;2.20;;;22.30;99.90;;;;;;5070821;28;20458;-70
2023/06/26 07:59:26;;;;;;;6.93;2.30;;;21.90;99.90;;;;;;5078225;28;20050;-70
2023/06/26 08:01:53;;;;;;;5.53;2.30;;;22.20;99.90;;;;;;5073266;28;20470;-69
2023/06/26 08:04:20;;;;;;;5.78;2.00;;;22.30;99.90;;;;;;5072647;28;20040;-67
2023/06/26 08:06:49;;;;;;;4.35;2.10;;;22.20;99.90;;;;;;5091587;28;20575;-68
2023/06/26 08:09:16;;;;;;;3.92;1.98;;;22.90;99.90;;;;;;5072028;28;20515;-69
2023/06/26 08:11:41;;;;;;;5.00;2.25;;;23.00;99.90;;;;;;5073618;28;20059;-69
2023/06/26 08:14:07;;;;;;;6.30;2.22;;;23.10;99.90;;;;;;5072243;28;20039;-67
2023/06/26 08:16:32;;;;;;;7.88;2.40;;;22.70;99.90;;;;;;5091517;28;20115;-68
2023/06/26 08:18:58;;;;;;;7.78;2.50;;;22.40;99.90;;;;;;5091259;28;20039;-68
2023/06/26 08:21:25;;;;;;;6.50;1.83;;;22.20;99.90;;;;;;5075303;28;20136;-67
2023/06/26 08:23:50;;;;;;;8.55;2.20;;;22.60;99.90;;;;;;5072897;28;20130;-69
2023/06/26 08:26:16;;;;;;;7.45;1.95;;;22.50;99.90;;;;;;5091008;28;20063;-70
2023/06/26 08:28:42;;;;;;;6.82;2.50;;;22.30;99.90;;;;;;5072312;28;20051;-69
2023/06/26 08:31:07;;;;;;;8.95;2.22;;;22.60;99.90;;;;;;5072596;28;20043;-68
2023/06/26 08:33:33;;;;;;;7.10;2.35;;;22.70;99.90;;;;;;5067844;28;20049;-69
2023/06/26 08:35:59;;;;;;;5.00;1.85;;;23.10;99.90;;;;;;5090065;28;20036;-69
2023/06/26 08:38:24;;;;;;;5.05;1.90;;;22.70;99.90;;;;;;5090501;28;20044;-67
2023/06/26 08:40:50;;;;;;;7.47;2.40;;;22.60;99.90;;;;;;5090632;28;20032;-68
2023/06/26 08:43:16;;;;;;;3.92;1.98;;;22.40;99.90;;;;;;5073596;28;20036;-68
2023/06/26 08:45:42;;;;;;;7.13;2.15;;;22.60;99.90;;;;;;5072392;28;20051;-68
2023/06/26 08:48:08;;;;;;;4.82;1.80;;;22.70;99.90;;;;;;5073258;28;20040;-69
2023/06/26 08:50:36;;;;;;;7.90;2.55;;;22.80;99.90;;;;;;5090445;28;20039;-69
2023/06/26 08:53:28;;;;;;;8.65;2.53;;;22.50;99.90;;;;;;5073311;28;20048;-70
2023/06/26 08:55:57;;;;;;;12.40;2.23;;;22.20;99.90;;;;;;5055610;28;20051;-69
2023/06/26 08:58:23;;;;;;;6.40;2.65;;;22.60;99.90;;;;;;5072401;28;20036;-69
2023/06/26 09:00:49;;;;;;;7.03;2.70;;;22.70;99.90;;;;;;5071761;28;20115;-69
2023/06/26 09:03:15;;;;;;;10.05;3.13;;;22.70;99.90;;;;;;5067879;28;20052;-69
2023/06/26 09:05:41;;;;;;;6.20;2.35;;;22.40;99.90;;;;;;5070172;28;20032;-70
2023/06/26 09:08:07;;;;;;;8.27;2.70;;;22.40;99.90;;;;;;5052195;28;20088;-70
2023/06/26 09:10:33;;;;;;;6.93;2.45;;;23.00;99.90;;;;;;5070580;28;20044;-70
2023/06/26 09:13:01;;;;;;;7.45;2.88;;;23.00;99.90;;;;;;5054756;28;20039;-70
2023/06/26 09:15:28;;;;;;;13.88;3.60;;;22.70;99.90;;;;;;5049526;28;20120;-69
2023/06/26 09:17:57;;;;;;;9.43;3.22;;;22.10;99.90;;;;;;5072807;28;20044;-69
2023/06/26 09:20:23;;;;;;;7.63;3.00;;;24.30;99.90;;;;;;5072059;28;20141;-69
2023/06/26 09:22:48;;;;;;;8.45;3.50;;;22.60;99.90;;;;;;5071640;28;20032;-69
2023/06/26 09:25:15;;;;;;;8.25;3.17;;;22.60;99.90;;;;;;5091627;28;20051;-70
2023/06/26 09:27:43;;;;;;;7.65;3.10;;;22.70;99.90;;;;;;5075368;28;20391;-69
2023/06/26 09:30:09;;;;;;;5.55;2.50;;;22.60;99.90;;;;;;5075140;28;20031;-70
2023/06/26 09:32:36;;;;;;;7.63;3.03;;;22.80;99.90;;;;;;5075605;28;20089;-69
2023/06/26 09:35:03;;;;;;;7.47;2.92;;;22.50;99.90;;;;;;5075441;28;20035;-69
2023/06/26 09:37:29;;;;;;;8.13;3.55;;;23.00;99.90;;;;;;5058342;28;20562;-69
2023/06/26 09:39:55;;;;;;;7.65;3.10;;;22.90;99.90;;;;;;5060094;28;20074;-70
2023/06/26 09:42:21;;;;;;;10.02;2.88;;;22.90;99.90;;;;;;5077604;28;20058;-70
2023/06/26 09:44:47;;;;;;;7.65;3.40;;;22.90;99.90;;;;;;5077645;28;20093;-70
2023/06/26 09:47:16;;;;;;;5.07;3.05;;;22.90;99.90;;;;;;5077134;28;20043;-70
2023/06/26 09:49:42;;;;;;;6.88;2.35;;;20.70;99.90;;;;;;5076972;28;20093;-70
2023/06/26 09:52:08;;;;;;;10.35;2.47;;;23.00;99.90;;;;;;5077036;28;20461;-69
2023/06/26 09:54:35;;;;;;;4.65;2.50;;;23.40;99.90;;;;;;5076939;28;20052;-69
2023/06/26 09:57:12;;;;;;;6.57;3.00;;;23.80;99.90;;;;;;5076659;28;20411;-68
2023/06/26 09:59:38;;;;;;;8.43;3.00;;;23.60;99.90;;;;;;5076558;28;20044;-69
2023/06/26 10:02:04;;;;;;;4.70;2.67;;;23.70;99.90;;;;;;5076740;28;20082;-69
2023/06/26 10:04:30;;;;;;;6.85;2.83;;;23.30;99.90;;;;;;5076737;28;20055;-69
2023/06/26 10:06:57;;;;;;;8.07;3.10;;;23.60;99.90;;;;;;5076747;28;20106;-69
2023/06/26 10:09:23;;;;;;;9.38;3.03;;;23.60;99.90;;;;;;5076240;28;20415;-69
2023/06/26 10:12:04;;;;;;;10.10;3.20;;;22.60;99.90;;;;;;5076577;28;20522;-69
2023/06/26 10:14:34;;;;;;;5.57;2.65;;;22.60;99.90;;;;;;5076549;28;20075;-69
2023/06/26 10:17:03;;;;;;;9.07;3.25;;;23.00;99.90;;;;;;5059328;28;20036;-67
2023/06/26 10:19:31;;;;;;;8.63;2.40;;;23.00;99.90;;;;;;5059427;28;20123;-68
2023/06/26 10:21:59;;;;;;;9.25;2.08;;;23.50;99.90;;;;;;5076495;28;20507;-69
2023/06/26 10:24:28;;;;;;;11.02;2.20;;;23.40;99.90;;;;;;5076745;28;20454;-69
2023/06/26 10:27:01;;;;;;;12.68;2.85;;;23.50;99.90;;;;;;5094695;28;20044;-69
2023/06/26 10:29:28;;;;;;;10.45;3.10;;;23.50;99.90;;;;;;5076342;28;20044;-70
2023/06/26 10:31:58;;;;;;;9.05;2.30;;;23.10;99.90;;;;;;5094445;28;20141;-69
2023/06/26 10:34:24;;;;;;;7.00;3.30;;;23.20;99.90;;;;;;5076366;28;20503;-69
2023/06/26 10:37:00;;;;;;;7.72;2.10;;;23.30;99.90;;;;;;5093109;28;20563;-69
2023/06/26 10:39:26;;;;;;;9.18;2.05;;;24.10;99.90;;;;;;5075997;28;20059;-69
2023/06/26 10:41:55;;;;;;;13.48;2.55;;;23.20;99.90;;;;;;5094189;28;20507;-69
2023/06/26 10:44:21;;;;;;;4.72;1.83;;;23.30;99.90;;;;;;5042681;28;20036;-69
2023/06/26 10:46:58;;;;;;;8.77;2.10;;;23.70;99.90;;;;;;5076328;28;20047;-69
2023/06/26 10:49:30;;;;;;;4.05;1.65;;;23.80;99.90;;;;;;5075826;28;20079;-69
2023/06/26 10:52:01;;;;;;;14.85;2.10;;;24.00;99.90;;;;;;5075950;28;20032;-69
2023/06/26 10:54:33;;;;;;;8.15;1.60;;;23.50;99.90;;;;;;5075970;28;20089;-69
2023/06/26 10:56:59;;;;;;;9.02;1.85;;;23.70;99.90;;;;;;5075809;28;20493;-69
2023/06/26 10:59:31;;;;;;;5.68;1.85;;;23.70;99.90;;;;;;5075527;28;20047;-69
2023/06/26 11:02:06;;;;;;;6.63;2.15;;;23.40;99.90;;;;;;5075990;28;20416;-69
2023/06/26 11:04:52;;;;;;;8.63;2.25;;;23.00;99.90;;;;;;5075724;28;20036;-70
2023/06/26 11:07:23;;;;;;;4.38;1.80;;;22.50;99.90;;;;;;5075867;28;20040;-69
2023/06/26 11:09:55;;;;;;;7.57;2.05;;;22.40;99.90;;;;;;5075485;28;20040;-69
2023/06/26 11:12:47;;;;;;;5.13;1.50;;;22.70;99.90;;;;;;5075805;28;20071;-69
2023/06/26 11:15:19;;;;;;;7.88;1.95;;;22.90;99.90;;;;;;5075946;28;20047;-69
2023/06/26 11:17:45;;;;;;;6.60;1.20;;;22.70;99.90;;;;;;5075258;28;20495;-69
2023/06/26 11:20:15;;;;;;;5.93;1.90;;;23.00;99.90;;;;;;5075309;28;20034;-69
2023/06/26 11:22:42;;;;;;;5.00;1.60;;;23.30;99.90;;;;;;5075467;28;20040;-69
2023/06/26 11:25:09;;;;;;;6.88;1.50;;;23.30;99.70;;;;;;5093658;28;20040;-70
2023/06/26 11:27:39;;;;;;;6.38;1.73;;;23.20;99.50;;;;;;5074756;28;20054;-70
2023/06/26 11:30:05;;;;;;;6.32;1.75;;;23.00;99.70;;;;;;5093365;28;20055;-70
2023/06/26 11:32:32;;;;;;;5.85;1.60;;;23.30;99.90;;;;;;5075110;28;20474;-70
2023/06/26 11:34:59;;;;;;;7.35;1.50;;;23.50;99.90;;;;;;5093283;28;20071;-70
2023/06/26 11:37:25;;;;;;;6.85;1.30;;;23.50;99.70;;;;;;5092790;28;20086;-70
2023/06/26 11:39:51;;;;;;;13.98;2.08;;;23.20;99.90;;;;;;5092830;28;20040;-70
2023/06/26 11:42:17;;;;;;;10.63;2.55;;;23.00;99.50;;;;;;5093372;28;20600;-69
2023/06/26 11:44:44;;;;;;;5.93;1.35;;;22.90;99.90;;;;;;5074820;28;20036;-69
2023/06/26 11:47:28;;;;;;;6.35;1.48;;;23.50;99.90;;;;;;5074022;28;20529;-69
2023/06/26 11:49:53;;;;;;;7.50;2.00;;;23.60;99.90;;;;;;5075310;28;20226;-69
2023/06/26 11:52:19;;;;;;;6.45;1.95;;;23.70;99.50;;;;;;5075033;28;20051;-69
2023/06/26 11:54:45;;;;;;;5.93;2.00;;;24.00;99.20;;;;;;5075213;28;20086;-69
2023/06/26 11:57:15;;;;;;;12.35;2.47;;;23.40;99.50;;;;;;5074292;28;20115;-69
2023/06/26 11:59:41;;;;;;;6.72;2.13;;;23.70;99.60;;;;;;5074333;28;20620;-70
2023/06/26 12:02:10;;;;;;;5.47;1.73;;;23.20;99.80;;;;;;5074686;28;20044;-69
2023/06/26 12:04:38;;;;;;;6.72;1.83;;;23.10;99.00;;;;;;5057866;28;20032;-69
2023/06/26 12:07:07;;;;;;;10.15;2.58;;;23.00;99.20;;;;;;5074234;28;20043;-70
2023/06/26 12:09:33;;;;;;;9.02;2.35;;;23.10;99.80;;;;;;5074710;28;20099;-69
2023/06/26 12:12:00;;;;;;;4.85;1.85;;;23.40;99.90;;;;;;5075012;28;20114;-69
2023/06/26 12:14:28;;;;;;;17.30;2.67;;;23.60;99.90;;;;;;5074734;28;20044;-69
2023/06/26 12:16:54;;;;;;;5.40;1.67;;;23.40;99.50;;;;;;5074428;28;20044;-69
2023/06/26 12:19:25;;;;;;;6.88;2.22;;;24.40;99.90;;;;;;5057103;28;20422;-68
2023/06/26 12:21:52;;;;;;;6.75;1.70;;;23.10;99.40;;;;;;5092876;28;20760;-66
2023/06/26 12:24:20;;;;;;;5.90;1.80;;;23.50;99.70;;;;;;5068182;28;20036;-70
2023/06/26 12:26:49;;;;;;;8.50;1.70;;;23.50;99.90;;;;;;5070638;28;20035;-68
2023/06/26 12:29:18;;;;;;;5.95;1.88;;;24.00;99.40;;;;;;5072067;28;20067;-68
2023/06/26 12:31:53;;;;;;;7.25;1.73;;;23.40;99.40;;;;;;5073659;28;20032;-68
2023/06/26 12:34:30;;;;;;;4.40;1.65;;;23.00;99.80;;;;;;5073814;28;20040;-69
2023/06/26 12:37:05;;;;;;;10.60;2.13;;;22.70;99.90;;;;;;5072955;28;20044;-68
2023/06/26 12:39:52;;;;;;;13.85;2.13;;;22.70;99.90;;;;;;5073862;28;20442;-68
2023/06/26 12:42:23;;;;;;;13.20;2.60;;;22.70;99.80;;;;;;5073563;28;20040;-69
2023/06/26 12:44:49;;;;;;;8.65;1.73;;;22.70;99.90;;;;;;5073804;28;20092;-69